Agios Nicolaos — SY4620 — position and weather

sailwx.info

Track history (hours):
 
Tides and Currents Weather Stations Pressure Air Temp Water Temp Dewpoint Dewpoint Depression Visibility Wind Speed Wind Dir Waves Ship Positions

Agios Nicolaos

Last reported at 2018-Jun-18 12:55 UTC. Time now 2018-Jul-20 14:01 UTC.
Position N 39°59' E 024°04'.
Warning: this ship's position is 32 days out of date.

Length 29 m; draft 2.5 m.

Type: Fishing. MMSI: 240164000.

Date/timePositionNaut miles runAvg speedWind from/ knotsBaromVisibWave heightAir tempDewpointWater temp
2018-Jun-18 12:55N 39°59' E 024°04'4 9.1
2018-Jun-18 12:29N 40°01' E 024°08'4 8.6
2018-Jun-18 11:59N 40°03' E 024°13'11 8.8
2018-Jun-18 10:45N 40°09' E 024°25'2 9.4
2018-Jun-18 10:30N 40°11' E 024°24'5 9.4
2018-Jun-18 10:00N 40°15' E 024°20'5 9.0
2018-Jun-18 09:30N 40°18' E 024°16'5 9.0
2018-Jun-18 08:59N 40°22' E 024°11'6 9.2
2018-Jun-18 08:20N 40°25' E 024°05'  
2018-Jun-15 14:09N 40°20' E 024°14'210.5
2018-Jun-15 14:00N 40°19' E 024°15'510.0
2018-Jun-15 13:30N 40°15' E 024°19'5 9.3
2018-Jun-15 13:00N 40°12' E 024°23'7 5.5
2018-Jun-15 11:43N 40°09' E 024°15'2 9.1
2018-Jun-15 11:29N 40°10' E 024°12'5 9.2
2018-Jun-15 10:56N 40°13' E 024°07'  
2018-Jun-11 10:50N 40°01' E 024°08'3 9.0
2018-Jun-11 10:28N 40°02' E 024°12'12 8.4
2018-Jun-11 09:01N 40°10' E 024°24'010.9
2018-Jun-11 09:00N 40°10' E 024°24'510.3
2018-Jun-11 08:30N 40°14' E 024°20'5 9.1
2018-Jun-11 08:00N 40°18' E 024°16'4 8.5
2018-Jun-11 07:29N 40°21' E 024°12'11 0.9
2018-Jun-10 18:00N 40°31' E 024°04'4 8.7
2018-Jun-10 17:30N 40°27' E 024°00'6 0.2
2018-Jun-09 04:42N 40°24' E 023°54'8 8.4
2018-Jun-09 03:46N 40°27' E 024°03'3 9.1
2018-Jun-09 03:29N 40°27' E 024°07'4 2.7
2018-Jun-09 02:03N 40°26' E 024°11'0 0.5
2018-Jun-09 02:00N 40°26' E 024°11'1 0.4
2018-Jun-09 00:31N 40°26' E 024°11'0 5.2
2018-Jun-09 00:30N 40°26' E 024°11'4 8.0
2018-Jun-09 00:01N 40°27' E 024°06'5 9.3
2018-Jun-08 23:30N 40°27' E 023°59'6 9.3
2018-Jun-08 22:54N 40°24' E 023°54'1 3.5
2018-Jun-08 22:30N 40°25' E 023°55'5 9.8
2018-Jun-08 22:00N 40°27' E 024°00'5 9.6
2018-Jun-08 21:30N 40°27' E 024°06'4 7.8
2018-Jun-08 21:00N 40°26' E 024°12'0 0.4
2018-Jun-08 20:30N 40°26' E 024°12'0 0.7
2018-Jun-08 20:00N 40°26' E 024°12'1 1.1
2018-Jun-08 19:30N 40°25' E 024°12'0 0.1
2018-Jun-08 18:46N 40°25' E 024°12'1 2.3
2018-Jun-08 18:30N 40°26' E 024°12'2 4.8
2018-Jun-08 18:00N 40°28' E 024°10'1 1.0
2018-Jun-08 17:30N 40°28' E 024°10'4 9.0
2018-Jun-08 17:00N 40°28' E 024°04'5 9.6
2018-Jun-08 16:31N 40°27' E 023°58'5 9.2
2018-Jun-08 16:00N 40°24' E 023°54'  
Track history (hours):
 
Tides and Currents Weather Stations Pressure Air Temp Water Temp Dewpoint Dewpoint Depression Visibility Wind Speed Wind Dir Waves Ship Positions

Agios Nicolaos

Last reported at 2018-Jun-18 12:55 UTC. Time now 2018-Jul-20 14:01 UTC.
Position N 39°59' E 024°04'.
Warning: this ship's position is 32 days out of date.

Length 29 m; draft 2.5 m.

Type: Fishing. MMSI: 240164000.

Date/timePositionNaut miles runAvg speedWind from/ knotsBaromVisibWave heightAir tempDewpointWater temp
2018-Jun-18 12:55N 39°59' E 024°04'4 9.1
2018-Jun-18 12:29N 40°01' E 024°08'4 8.6
2018-Jun-18 11:59N 40°03' E 024°13'11 8.8
2018-Jun-18 10:45N 40°09' E 024°25'2 9.4
2018-Jun-18 10:30N 40°11' E 024°24'5 9.4
2018-Jun-18 10:00N 40°15' E 024°20'5 9.0
2018-Jun-18 09:30N 40°18' E 024°16'5 9.0
2018-Jun-18 08:59N 40°22' E 024°11'6 9.2
2018-Jun-18 08:20N 40°25' E 024°05'  
2018-Jun-15 14:09N 40°20' E 024°14'210.5
2018-Jun-15 14:00N 40°19' E 024°15'510.0
2018-Jun-15 13:30N 40°15' E 024°19'5 9.3
2018-Jun-15 13:00N 40°12' E 024°23'7 5.5
2018-Jun-15 11:43N 40°09' E 024°15'2 9.1
2018-Jun-15 11:29N 40°10' E 024°12'5 9.2
2018-Jun-15 10:56N 40°13' E 024°07'  
2018-Jun-11 10:50N 40°01' E 024°08'3 9.0
2018-Jun-11 10:28N 40°02' E 024°12'12 8.4
2018-Jun-11 09:01N 40°10' E 024°24'010.9
2018-Jun-11 09:00N 40°10' E 024°24'510.3
2018-Jun-11 08:30N 40°14' E 024°20'5 9.1
2018-Jun-11 08:00N 40°18' E 024°16'4 8.5
2018-Jun-11 07:29N 40°21' E 024°12'11 0.9
2018-Jun-10 18:00N 40°31' E 024°04'4 8.7
2018-Jun-10 17:30N 40°27' E 024°00'6 0.2
2018-Jun-09 04:42N 40°24' E 023°54'8 8.4
2018-Jun-09 03:46N 40°27' E 024°03'3 9.1
2018-Jun-09 03:29N 40°27' E 024°07'4 2.7
2018-Jun-09 02:03N 40°26' E 024°11'0 0.5
2018-Jun-09 02:00N 40°26' E 024°11'1 0.4
2018-Jun-09 00:31N 40°26' E 024°11'0 5.2
2018-Jun-09 00:30N 40°26' E 024°11'4 8.0
2018-Jun-09 00:01N 40°27' E 024°06'5 9.3
2018-Jun-08 23:30N 40°27' E 023°59'6 9.3
2018-Jun-08 22:54N 40°24' E 023°54'1 3.5
2018-Jun-08 22:30N 40°25' E 023°55'5 9.8
2018-Jun-08 22:00N 40°27' E 024°00'5 9.6
2018-Jun-08 21:30N 40°27' E 024°06'4 7.8
2018-Jun-08 21:00N 40°26' E 024°12'0 0.4
2018-Jun-08 20:30N 40°26' E 024°12'0 0.7
2018-Jun-08 20:00N 40°26' E 024°12'1 1.1
2018-Jun-08 19:30N 40°25' E 024°12'0 0.1
2018-Jun-08 18:46N 40°25' E 024°12'1 2.3
2018-Jun-08 18:30N 40°26' E 024°12'2 4.8
2018-Jun-08 18:00N 40°28' E 024°10'1 1.0
2018-Jun-08 17:30N 40°28' E 024°10'4 9.0
2018-Jun-08 17:00N 40°28' E 024°04'5 9.6
2018-Jun-08 16:31N 40°27' E 023°58'5 9.2
2018-Jun-08 16:00N 40°24' E 023°54'  

Dump ship's entire track history